KCEY

Kyle-Oakley Field Airport

Murray, Kentucky, USA
METAR KCEY 161015Z AUTO 17004KT 10SM CLR 00/M03 A3015 RMK AO1
Observed Flight Rules
Dec-16 @ 10:15 UTC (40 minutes ago) Visual Flight Rules
Wind Visibility Clouds
170° at 4 knots 10 miles
  • Clear skies
Temperatures Readings
Current 0°C / 32°F
Dewpoint -3°C / 27°F
Humidity 80%
Altimeter 30.15" Hg
Pressure 1021 hPa
Elevation 176
METAR KCEY 161015Z AUTO 17004KT 10SM CLR 00/M03 A3015 RMK AO1
Observed Flight Rules
Dec-16 @ 10:15 UTC
(40 minutes ago)
VFR
Wind Visibility
170° at 4 knots 10 miles
Clouds
  • Clear skies
Temperature Dewpoint
0°C / 32°F -3°C / 27°F
Humidity Altimeter Pressure
80% 30.15" Hg 1021 hPa